createdAt,value
2019-02-18T00:02:21.971Z,99129.16
2019-02-18T00:04:52.186Z,99130.48
2019-02-18T00:07:22.406Z,99128.17
2019-02-18T00:09:52.926Z,99120.75
2019-02-18T00:12:23.529Z,99124.47
2019-02-18T00:14:54.845Z,99119.42
2019-02-18T00:17:26.013Z,99124.03
2019-02-18T00:19:56.816Z,99116.89
2019-02-18T00:22:27.564Z,99118.61
2019-02-18T00:24:58.068Z,99116.87
2019-02-18T00:27:28.279Z,99122.48
2019-02-18T00:29:58.521Z,99115.42
2019-02-18T00:32:28.726Z,99120.45
2019-02-18T00:34:58.894Z,99117.93
2019-02-18T00:37:29.530Z,99129.94
2019-02-18T00:39:59.985Z,99133.80
2019-02-18T00:42:30.490Z,99134.21
2019-02-18T00:45:00.986Z,99137.03
2019-02-18T00:47:31.551Z,99138.98
2019-02-18T00:50:01.837Z,99140.09
2019-02-18T00:52:32.407Z,99136.80
2019-02-18T00:55:03.344Z,99128.59
2019-02-18T00:57:33.839Z,99138.48
2019-02-18T01:00:04.809Z,99138.25
2019-02-18T01:02:35.515Z,99143.27
2019-02-18T01:05:06.338Z,99139.27
2019-02-18T01:07:36.917Z,99145.84
2019-02-18T01:10:08.498Z,99144.02
2019-02-18T01:12:39.093Z,99137.25
2019-02-18T01:15:10.676Z,99142.14
2019-02-18T01:17:40.966Z,99136.48
2019-02-18T01:20:11.647Z,99136.84
2019-02-18T01:22:43.661Z,99137.83
2019-02-18T01:25:13.909Z,99136.84
2019-02-18T01:27:44.531Z,99147.96
2019-02-18T01:30:15.696Z,99146.02
2019-02-18T01:32:46.015Z,99153.67
2019-02-18T01:35:16.626Z,99154.05
2019-02-18T01:37:46.917Z,99156.39
2019-02-18T01:40:17.468Z,99158.52
2019-02-18T01:42:48.429Z,99160.75
2019-02-18T01:45:18.697Z,99152.83
2019-02-18T01:47:48.964Z,99155.58
2019-02-18T01:50:19.500Z,99153.00
2019-02-18T01:52:50.333Z,99155.14
2019-02-18T01:55:20.524Z,99153.67
2019-02-18T01:57:51.050Z,99143.83
2019-02-18T02:00:21.234Z,99144.63
2019-02-18T02:02:51.939Z,99138.20
2019-02-18T02:05:22.560Z,99150.17
2019-02-18T02:07:56.366Z,99138.77
2019-02-18T02:10:24.846Z,99138.77
2019-02-18T02:13:27.748Z,99139.23
2019-02-18T02:15:58.471Z,99143.30
2019-02-18T02:18:28.756Z,99143.41
2019-02-18T02:20:59.650Z,99146.69
2019-02-18T02:23:30.820Z,99140.83
2019-02-18T02:26:01.391Z,99139.16
2019-02-18T02:28:31.981Z,99139.55
2019-02-18T02:31:02.626Z,99138.20
2019-02-18T02:33:32.872Z,99143.31
2019-02-18T02:36:03.164Z,99141.79
2019-02-18T02:38:34.067Z,99138.13
2019-02-18T02:41:04.599Z,99134.29
2019-02-18T02:43:34.876Z,99134.97
2019-02-18T02:46:05.655Z,99126.39
2019-02-18T02:48:37.047Z,99124.37
2019-02-18T02:51:07.659Z,99123.87
2019-02-18T02:53:38.337Z,99120.63
2019-02-18T02:56:09.211Z,99121.59
2019-02-18T02:58:39.944Z,99125.19
2019-02-18T03:01:10.231Z,99119.21
2019-02-18T03:03:41.195Z,99119.92
2019-02-18T03:06:11.442Z,99115.22
2019-02-18T03:08:42.444Z,99122.20
2019-02-18T03:11:13.564Z,99128.39
2019-02-18T03:13:43.950Z,99126.00
2019-02-18T03:19:36.510Z,99119.66
2019-02-18T03:22:07.342Z,99119.38
2019-02-18T03:24:37.890Z,99117.59
2019-02-18T03:27:08.126Z,99123.67
2019-02-18T03:30:07.610Z,99113.44
2019-02-18T03:32:45.919Z,99109.78
2019-02-18T03:35:17.107Z,99117.64
2019-02-18T03:37:47.377Z,99118.71
2019-02-18T03:40:17.919Z,99110.28
2019-02-18T03:42:49.022Z,99111.42
2019-02-18T03:45:19.579Z,99112.98
2019-02-18T03:47:50.117Z,99111.48
2019-02-18T03:50:20.980Z,99111.23
2019-02-18T03:52:51.447Z,99110.47
2019-02-18T03:55:22.119Z,99103.58
2019-02-18T03:57:52.355Z,99103.67
2019-02-18T04:00:22.673Z,99105.95
2019-02-18T04:02:53.020Z,99105.16
2019-02-18T04:05:23.305Z,99105.69
2019-02-18T04:07:54.253Z,99105.23
2019-02-18T04:10:24.885Z,99106.48
2019-02-18T04:12:55.342Z,99105.09
2019-02-18T04:15:25.973Z,99102.14
2019-02-18T04:17:56.539Z,99109.31
2019-02-18T04:20:27.413Z,99111.28
2019-02-18T04:22:58.140Z,99103.56
2019-02-18T04:25:28.509Z,99107.14
2019-02-18T04:27:59.405Z,99106.39
2019-02-18T04:30:29.634Z,99117.06
2019-02-18T04:33:00.368Z,99106.19
2019-02-18T04:35:30.688Z,99107.20
2019-02-18T04:38:01.243Z,99105.52
2019-02-18T04:40:31.839Z,99102.80
2019-02-18T04:43:02.385Z,99100.17
2019-02-18T04:45:33.104Z,99096.49
2019-02-18T04:48:04.160Z,99092.25
2019-02-18T04:50:34.689Z,99095.77
2019-02-18T04:53:05.217Z,99089.20
2019-02-18T04:55:36.994Z,99091.59
2019-02-18T04:58:07.172Z,99086.89
2019-02-18T05:00:37.729Z,99088.30
2019-02-18T05:03:08.009Z,99087.02
2019-02-18T05:05:38.502Z,99092.77
2019-02-18T05:08:09.113Z,99090.95
2019-02-18T05:10:40.226Z,99091.81
2019-02-18T05:13:11.061Z,99091.05
2019-02-18T05:15:42.286Z,99092.37
2019-02-18T05:18:13.027Z,99084.88
2019-02-18T05:20:43.604Z,99089.47
2019-02-18T05:23:14.142Z,99088.19
2019-02-18T05:25:45.795Z,99092.56
2019-02-18T05:28:16.729Z,99089.14
2019-02-18T05:30:47.301Z,99091.95
2019-02-18T05:33:18.207Z,99088.04
2019-02-18T05:35:48.935Z,99088.53
2019-02-18T05:38:19.229Z,99085.41
2019-02-18T05:40:50.197Z,99081.56
2019-02-18T05:43:20.392Z,99082.48
2019-02-18T05:45:51.531Z,99083.37
2019-02-18T05:48:22.076Z,99079.52
2019-02-18T05:50:53.509Z,99070.33
2019-02-18T05:53:24.696Z,99078.39
2019-02-18T05:55:55.622Z,99074.88
2019-02-18T05:58:26.533Z,99068.31
2019-02-18T06:00:57.234Z,99067.16
2019-02-18T06:03:27.831Z,99066.42
2019-02-18T06:05:59.160Z,99068.22
2019-02-18T06:08:29.708Z,99066.56
2019-02-18T06:10:59.984Z,99061.89
2019-02-18T06:13:30.328Z,99061.04
2019-02-18T06:16:02.632Z,99067.20
2019-02-18T06:18:32.815Z,99071.42
2019-02-18T06:21:03.506Z,99062.91
2019-02-18T06:23:34.106Z,99066.23
2019-02-18T06:26:04.658Z,99067.06
2019-02-18T06:28:35.198Z,99076.34
2019-02-18T06:31:05.524Z,99071.20
2019-02-18T06:33:36.103Z,99072.66
2019-02-18T06:36:06.393Z,99077.80
2019-02-18T06:38:38.640Z,99077.24
2019-02-18T06:41:09.488Z,99078.59
2019-02-18T06:43:39.747Z,99074.84
2019-02-18T06:46:27.920Z,99066.79
2019-02-18T06:49:15.685Z,99072.20
2019-02-18T06:51:46.969Z,99079.72
2019-02-18T06:54:17.635Z,99082.44
2019-02-18T06:57:08.547Z,99088.23
2019-02-18T07:00:04.332Z,99092.39
2019-02-18T07:02:52.988Z,99086.44
2019-02-18T07:05:42.169Z,99093.86
2019-02-18T07:08:28.986Z,99087.52
2019-02-18T07:11:24.516Z,99090.61
2019-02-18T07:13:55.049Z,99084.39
2019-02-18T07:16:25.579Z,99092.58
2019-02-18T07:18:56.461Z,99090.46
2019-02-18T07:21:27.293Z,99088.48
2019-02-18T07:23:57.879Z,99092.18
2019-02-18T07:26:28.403Z,99093.28
2019-02-18T07:28:58.945Z,99087.03
2019-02-18T07:31:29.157Z,99094.06
2019-02-18T07:34:00.005Z,99094.80
2019-02-18T07:36:30.632Z,99087.78
2019-02-18T07:39:01.146Z,99090.01
2019-02-18T07:41:31.406Z,99089.66
2019-02-18T07:44:02.003Z,99093.32
2019-02-18T07:46:32.740Z,99092.53
2019-02-18T07:49:03.386Z,99091.61
2019-02-18T07:51:34.682Z,99086.14
2019-02-18T07:54:04.967Z,99081.04
2019-02-18T07:56:36.303Z,99086.09
2019-02-18T07:59:07.046Z,99079.08
2019-02-18T08:01:40.605Z,99074.81
2019-02-18T08:04:15.153Z,99073.91
2019-02-18T08:06:48.475Z,99076.34
2019-02-18T08:09:20.908Z,99072.39
2019-02-18T08:11:54.140Z,99065.28
2019-02-18T08:14:27.992Z,99066.93
2019-02-18T08:17:01.997Z,99066.88
2019-02-18T08:19:36.457Z,99063.94
2019-02-18T08:22:09.811Z,99060.69
2019-02-18T08:24:40.700Z,99061.38
2019-02-18T08:27:14.374Z,99061.05
2019-02-18T08:29:47.894Z,99055.05
2019-02-18T08:32:20.202Z,99053.15
2019-02-18T08:34:53.666Z,99052.31
2019-02-18T08:37:25.020Z,99054.00
2019-02-18T08:39:58.262Z,99048.87
2019-02-18T08:42:30.681Z,99040.33
2019-02-18T08:45:05.626Z,99042.84
2019-02-18T08:47:40.735Z,99042.84
2019-02-18T08:50:15.129Z,99042.84
2019-02-18T08:52:48.898Z,99047.34
2019-02-18T08:55:23.196Z,99046.60
2019-02-18T08:57:54.769Z,99042.73
2019-02-18T09:00:30.450Z,99032.89
2019-02-18T09:03:03.727Z,99030.88
2019-02-18T09:05:37.477Z,99037.80
2019-02-18T09:08:11.519Z,99029.63
2019-02-18T09:10:42.573Z,99030.39
2019-02-18T09:13:13.279Z,99019.50
2019-02-18T09:15:52.970Z,99019.50
2019-02-18T09:18:20.816Z,99014.41
2019-02-18T09:20:51.443Z,99013.97
2019-02-18T09:23:40.910Z,99013.16
2019-02-18T09:26:12.771Z,99008.27
2019-02-18T09:28:43.537Z,98998.05
2019-02-18T09:31:14.193Z,99002.84
2019-02-18T09:33:44.773Z,98996.75
2019-02-18T09:36:15.312Z,98993.63
2019-02-18T09:38:45.994Z,98992.95
2019-02-18T09:41:17.088Z,98990.94
2019-02-18T09:43:48.233Z,98987.00
2019-02-18T09:46:18.543Z,98984.08
2019-02-18T09:48:49.317Z,98990.00
2019-02-18T09:51:20.310Z,98991.81
2019-02-18T09:53:51.645Z,98992.91
2019-02-18T09:56:22.246Z,98998.00
2019-02-18T09:58:52.838Z,98990.11
2019-02-18T10:01:23.164Z,98992.12
2019-02-18T10:03:53.885Z,98988.33
2019-02-18T10:06:24.438Z,98985.84
2019-02-18T10:08:55.316Z,98989.34
2019-02-18T10:11:25.872Z,98989.24
2019-02-18T10:13:56.925Z,98987.93
2019-02-18T10:16:27.460Z,98978.20
2019-02-18T10:18:58.502Z,98976.00
2019-02-18T10:21:29.435Z,98968.52
2019-02-18T10:24:00.727Z,98973.98
2019-02-18T10:26:31.621Z,98970.52
2019-02-18T10:29:02.150Z,98971.52
2019-02-18T10:31:32.373Z,98965.39
2019-02-18T10:34:02.903Z,98966.24
2019-02-18T10:36:33.435Z,98964.11
2019-02-18T10:39:05.534Z,98963.10
2019-02-18T10:41:36.550Z,98966.25
2019-02-18T10:44:07.267Z,98964.37
2019-02-18T10:46:40.523Z,98957.53
2019-02-18T10:49:19.299Z,98954.38
2019-02-18T10:51:41.922Z,98947.80
2019-02-18T10:54:13.078Z,98950.44
2019-02-18T10:56:43.609Z,98942.78
2019-02-18T10:59:14.144Z,98935.28
2019-02-18T11:01:44.668Z,98933.83
2019-02-18T11:04:15.806Z,98922.82
2019-02-18T11:06:46.483Z,98919.41
2019-02-18T11:09:17.069Z,98918.66
2019-02-18T11:11:47.629Z,98913.34
2019-02-18T11:14:18.140Z,98909.91
2019-02-18T11:16:48.938Z,98908.00
2019-02-18T11:19:19.529Z,98908.05
2019-02-18T11:21:50.544Z,98906.33
2019-02-18T11:24:21.487Z,98903.87
2019-02-18T11:26:52.371Z,98898.91
2019-02-18T11:29:22.606Z,98901.31
2019-02-18T11:31:52.854Z,98887.05
2019-02-18T11:34:23.803Z,98877.28
2019-02-18T11:36:54.374Z,98880.06
2019-02-18T11:39:24.587Z,98871.36
2019-02-18T11:41:55.864Z,98876.55
2019-02-18T11:45:19.340Z,98873.16
2019-02-18T11:47:40.158Z,98872.32
2019-02-18T11:50:11.446Z,98867.11
2019-02-18T11:52:42.056Z,98860.80
2019-02-18T11:55:12.876Z,98859.45
2019-02-18T11:57:43.786Z,98853.84
2019-02-18T12:00:14.124Z,98851.89
2019-02-18T12:02:44.751Z,98849.98
2019-02-18T12:05:15.320Z,98845.31
2019-02-18T12:07:45.838Z,98848.57
2019-02-18T12:10:16.488Z,98846.02
2019-02-18T12:12:47.055Z,98836.08
2019-02-18T12:15:18.396Z,98835.80
2019-02-18T12:17:49.054Z,98835.95
2019-02-18T12:20:19.622Z,98832.76
2019-02-18T12:22:50.168Z,98815.05
2019-02-18T12:25:20.848Z,98817.72
2019-02-18T12:27:51.434Z,98813.91
2019-02-18T12:30:21.956Z,98812.22
2019-02-18T12:32:52.577Z,98810.64
2019-02-18T12:35:30.583Z,98804.14
2019-02-18T12:37:55.983Z,98801.76
2019-02-18T12:40:26.238Z,98802.27
2019-02-18T12:42:56.534Z,98793.04
2019-02-18T12:45:27.173Z,98787.45
2019-02-18T12:47:57.387Z,98781.20
2019-02-18T12:50:28.063Z,98785.64
2019-02-18T12:52:58.929Z,98778.54
2019-02-18T12:55:29.998Z,98778.54
2019-02-18T12:58:00.964Z,98774.19
2019-02-18T13:00:31.488Z,98767.49
2019-02-18T13:03:02.121Z,98762.19
2019-02-18T13:05:33.065Z,98759.27
2019-02-18T13:08:03.888Z,98761.20
2019-02-18T13:10:34.855Z,98754.94
2019-02-18T13:13:05.548Z,98749.47
2019-02-18T13:15:35.727Z,98749.46
2019-02-18T13:18:05.975Z,98744.76
2019-02-18T13:20:36.844Z,98741.05
2019-02-18T13:23:07.418Z,98729.30
2019-02-18T13:25:37.998Z,98732.43
2019-02-18T13:28:08.884Z,98733.30
2019-02-18T13:30:39.018Z,98736.42
2019-02-18T13:33:09.234Z,98735.14
2019-02-18T13:35:39.482Z,98732.98
2019-02-18T13:38:11.009Z,98730.56
2019-02-18T13:40:41.890Z,98723.45
2019-02-18T13:43:12.796Z,98720.70
2019-02-18T13:45:43.018Z,98718.20
2019-02-18T13:48:13.584Z,98717.63
2019-02-18T13:50:44.426Z,98710.94
2019-02-18T13:53:15.063Z,98711.56
2019-02-18T13:55:45.340Z,98703.50
2019-02-18T13:58:15.566Z,98708.77
2019-02-18T14:00:45.793Z,98710.70
2019-02-18T14:03:16.315Z,98707.88
2019-02-18T14:05:46.890Z,98705.14
2019-02-18T14:08:17.499Z,98707.92
2019-02-18T14:10:48.298Z,98703.42
2019-02-18T14:13:18.880Z,98706.78
2019-02-18T14:15:49.378Z,98709.81
2019-02-18T14:18:19.864Z,98708.20
2019-02-18T14:20:51.022Z,98710.69
2019-02-18T14:23:21.287Z,98714.05
2019-02-18T14:25:51.938Z,98709.28
2019-02-18T14:28:22.226Z,98707.77
2019-02-18T14:30:52.451Z,98704.05
2019-02-18T14:33:23.139Z,98711.17
2019-02-18T14:35:53.697Z,98706.67
2019-02-18T14:38:24.581Z,98704.53
2019-02-18T14:40:56.009Z,98713.16
2019-02-18T14:43:26.461Z,98712.90
2019-02-18T14:45:57.304Z,98706.44
2019-02-18T14:48:28.407Z,98712.55
2019-02-18T14:50:58.976Z,98707.14
2019-02-18T14:53:29.166Z,98705.08
2019-02-18T14:56:00.036Z,98711.27
2019-02-18T14:58:31.691Z,98710.88
2019-02-18T15:01:02.743Z,98699.07
2019-02-18T15:03:33.685Z,98706.77
2019-02-18T15:06:03.981Z,98705.45
2019-02-18T15:08:34.631Z,98709.38
2019-02-18T15:11:05.528Z,98705.23
2019-02-18T15:13:35.705Z,98704.63
2019-02-18T15:16:06.421Z,98708.50
2019-02-18T15:18:37.358Z,98696.73
2019-02-18T15:21:08.195Z,98701.44
2019-02-18T15:23:38.942Z,98703.09
2019-02-18T15:26:09.663Z,98704.22
2019-02-18T15:28:40.191Z,98702.63
2019-02-18T15:31:10.484Z,98696.72
2019-02-18T15:33:40.949Z,98691.97
2019-02-18T15:36:11.156Z,98690.83
2019-02-18T15:38:42.421Z,98689.44
2019-02-18T15:41:13.144Z,98696.16
2019-02-18T15:43:43.794Z,98689.05
2019-02-18T15:46:14.096Z,98688.17
2019-02-18T15:48:44.747Z,98697.39
2019-02-18T15:51:15.469Z,98691.75
2019-02-18T15:53:46.527Z,98689.30
2019-02-18T15:56:17.246Z,98693.39
2019-02-18T15:58:47.501Z,98694.69
2019-02-18T16:01:18.104Z,98696.05
2019-02-18T16:03:49.062Z,98696.92
2019-02-18T16:06:19.775Z,98697.41
2019-02-18T16:08:50.121Z,98699.97
2019-02-18T16:11:21.433Z,98704.70
2019-02-18T16:13:51.695Z,98709.23
2019-02-18T16:16:22.303Z,98708.02
2019-02-18T16:18:53.549Z,98712.44
2019-02-18T16:21:24.083Z,98708.44
2019-02-18T16:23:55.068Z,98709.95
2019-02-18T16:26:25.319Z,98705.86
2019-02-18T16:28:56.014Z,98709.41
2019-02-18T16:31:26.926Z,98711.86
2019-02-18T16:33:57.158Z,98712.13
2019-02-18T16:36:28.071Z,98714.33
2019-02-18T16:38:59.389Z,98714.14
2019-02-18T16:41:29.975Z,98712.90
2019-02-18T16:44:00.862Z,98718.32
2019-02-18T16:46:32.139Z,98719.24
2019-02-18T16:49:03.387Z,98720.79
2019-02-18T16:51:34.840Z,98718.67
2019-02-18T16:54:05.091Z,98721.98
2019-02-18T16:56:35.366Z,98725.70
2019-02-18T16:59:05.924Z,98724.61
2019-02-18T17:01:36.855Z,98731.94
2019-02-18T17:04:07.790Z,98735.07
2019-02-18T17:06:38.631Z,98738.42
2019-02-18T17:09:13.281Z,98739.62
2019-02-18T17:11:43.663Z,98735.98
2019-02-18T17:14:14.210Z,98738.91
2019-02-18T17:16:44.735Z,98738.02
2019-02-18T17:19:15.341Z,98739.54
2019-02-18T17:21:46.216Z,98745.38
2019-02-18T17:24:17.005Z,98742.84
2019-02-18T17:26:47.251Z,98747.22
2019-02-18T17:29:17.997Z,98746.23
2019-02-18T17:31:48.889Z,98746.20
2019-02-18T17:34:19.437Z,98749.66
2019-02-18T17:36:50.003Z,98749.64
2019-02-18T17:39:20.942Z,98745.96
2019-02-18T17:41:51.463Z,98750.06
2019-02-18T17:44:21.743Z,98749.89
2019-02-18T17:46:52.032Z,98752.39
2019-02-18T17:49:23.057Z,98758.87
2019-02-18T17:51:54.000Z,98761.52
2019-02-18T17:54:25.049Z,98758.82
2019-02-18T17:56:55.675Z,98758.82
2019-02-18T17:59:27.132Z,98765.85
2019-02-18T18:01:58.055Z,98773.42
2019-02-18T18:04:28.695Z,98776.48
2019-02-18T18:06:58.914Z,98781.57
2019-02-18T18:09:29.199Z,98784.76
2019-02-18T18:11:59.717Z,98786.02
2019-02-18T18:14:30.270Z,98786.59
2019-02-18T18:17:00.825Z,98793.75
2019-02-18T18:19:31.310Z,98790.56
2019-02-18T18:22:01.943Z,98792.30
2019-02-18T18:24:32.779Z,98796.66
2019-02-18T18:27:03.128Z,98794.92
2019-02-18T18:29:33.751Z,98801.47
2019-02-18T18:32:04.239Z,98794.09
2019-02-18T18:34:34.833Z,98800.06
2019-02-18T18:37:05.077Z,98804.93
2019-02-18T18:39:36.215Z,98802.39
2019-02-18T18:42:07.673Z,98795.49
2019-02-18T18:44:39.064Z,98796.84
2019-02-18T18:47:09.954Z,98804.77
2019-02-18T18:49:40.884Z,98794.72
2019-02-18T18:52:11.155Z,98800.56
2019-02-18T18:54:41.823Z,98800.05
2019-02-18T18:57:12.545Z,98809.17
2019-02-18T18:59:43.222Z,98803.58
2019-02-18T19:02:13.841Z,98806.73
2019-02-18T19:04:45.012Z,98803.83
2019-02-18T19:07:16.319Z,98812.08
2019-02-18T19:09:47.117Z,98812.06
2019-02-18T19:12:17.964Z,98812.06
2019-02-18T19:14:48.738Z,98817.96
2019-02-18T19:17:19.202Z,98811.88
2019-02-18T19:19:57.571Z,98812.92
2019-02-18T19:22:22.241Z,98816.81
2019-02-18T19:24:52.981Z,98814.64
2019-02-18T19:27:23.382Z,98823.73
2019-02-18T19:29:54.267Z,98826.02
2019-02-18T19:32:24.697Z,98833.41
2019-02-18T19:34:55.409Z,98840.11
2019-02-18T19:37:26.386Z,98842.87
2019-02-18T19:39:58.174Z,98840.34
2019-02-18T19:42:28.565Z,98839.95
2019-02-18T19:44:59.195Z,98840.56
2019-02-18T19:47:30.201Z,98841.59
2019-02-18T19:50:01.092Z,98845.66
2019-02-18T19:52:31.731Z,98844.54
2019-02-18T19:55:02.416Z,98846.90
2019-02-18T19:57:32.806Z,98847.42
2019-02-18T20:00:03.457Z,98846.53
2019-02-18T20:02:35.503Z,98849.99
2019-02-18T20:05:05.888Z,98852.41
2019-02-18T20:07:36.625Z,98851.04
2019-02-18T20:10:07.638Z,98853.94
2019-02-18T20:12:38.197Z,98857.50
2019-02-18T20:15:09.558Z,98859.85
2019-02-18T20:17:39.856Z,98855.38
2019-02-18T20:20:10.907Z,98863.83
2019-02-18T20:22:41.984Z,98857.61
2019-02-18T20:25:12.810Z,98862.31
2019-02-18T20:27:43.547Z,98863.67
2019-02-18T20:30:13.969Z,98866.50
2019-02-18T20:32:44.594Z,98863.55
2019-02-18T20:35:14.929Z,98867.34
2019-02-18T20:37:45.497Z,98868.37
2019-02-18T20:40:15.986Z,98869.93
2019-02-18T20:42:47.131Z,98869.62
2019-02-18T20:45:18.112Z,98872.52
2019-02-18T20:47:48.436Z,98878.45
2019-02-18T20:50:19.420Z,98873.94
2019-02-18T20:52:50.171Z,98873.16
2019-02-18T20:55:20.717Z,98878.41
2019-02-18T20:57:51.409Z,98873.03
2019-02-18T21:00:22.011Z,98871.47
2019-02-18T21:02:52.339Z,98866.73
2019-02-18T21:05:22.933Z,98866.01
2019-02-18T21:07:54.097Z,98862.91
2019-02-18T21:10:24.857Z,98864.02
2019-02-18T21:12:55.249Z,98857.39
2019-02-18T21:15:25.573Z,98861.38
2019-02-18T21:17:56.277Z,98864.79
2019-02-18T21:20:27.016Z,98860.92
2019-02-18T21:22:57.952Z,98861.62
2019-02-18T21:25:28.571Z,98864.96
2019-02-18T21:28:00.545Z,98867.58
2019-02-18T21:30:31.649Z,98867.52
2019-02-18T21:33:02.251Z,98861.82
2019-02-18T21:35:34.186Z,98864.62
2019-02-18T21:38:05.542Z,98858.63
2019-02-18T21:40:36.175Z,98860.74
2019-02-18T21:43:06.466Z,98862.06
2019-02-18T21:45:38.900Z,98865.90
2019-02-18T21:48:10.972Z,98871.00
2019-02-18T21:50:42.484Z,98873.05
2019-02-18T21:53:13.172Z,98875.30
2019-02-18T21:55:46.418Z,98869.91
2019-02-18T21:58:17.069Z,98874.29
2019-02-18T22:00:47.636Z,98875.52
2019-02-18T22:03:20.512Z,98877.44
2019-02-18T22:05:51.938Z,98872.20
2019-02-18T22:08:22.511Z,98871.72
2019-02-18T22:10:53.515Z,98876.75
2019-02-18T22:13:24.982Z,98874.30
2019-02-18T22:15:56.609Z,98870.24
2019-02-18T22:18:27.216Z,98875.69
2019-02-18T22:20:58.035Z,98867.33
2019-02-18T22:23:34.103Z,98870.72
2019-02-18T22:26:04.646Z,98864.73
2019-02-18T22:28:35.649Z,98863.98
2019-02-18T22:31:06.214Z,98868.91
2019-02-18T22:33:36.965Z,98870.68
2019-02-18T22:36:07.625Z,98866.98
2019-02-18T22:38:39.351Z,98867.98
2019-02-18T22:41:10.374Z,98871.83
2019-02-18T22:43:40.998Z,98874.41
2019-02-18T22:46:11.815Z,98874.91
2019-02-18T22:48:42.124Z,98876.11
2019-02-18T22:51:12.738Z,98876.88
2019-02-18T22:53:44.151Z,98876.59
2019-02-18T22:56:15.029Z,98877.41
2019-02-18T22:58:45.517Z,98883.34
2019-02-18T23:01:16.448Z,98873.83
2019-02-18T23:03:47.652Z,98874.27
2019-02-18T23:06:18.006Z,98877.09
2019-02-18T23:08:48.966Z,98878.28
2019-02-18T23:11:19.266Z,98878.08
2019-02-18T23:13:49.819Z,98882.76
2019-02-18T23:16:20.167Z,98886.52
2019-02-18T23:18:51.546Z,98890.81
2019-02-18T23:21:22.526Z,98891.81
2019-02-18T23:23:53.127Z,98895.25
2019-02-18T23:26:23.555Z,98892.42
2019-02-18T23:28:53.740Z,98896.95
2019-02-18T23:31:24.101Z,98901.47
2019-02-18T23:33:55.179Z,98897.51
2019-02-18T23:36:25.851Z,98897.09
2019-02-18T23:38:56.952Z,98896.30
2019-02-18T23:41:27.874Z,98898.83
2019-02-18T23:43:58.053Z,98899.59
2019-02-18T23:46:28.548Z,98897.61
2019-02-18T23:48:59.231Z,98906.73
2019-02-18T23:51:29.741Z,98913.05
2019-02-18T23:54:00.745Z,98910.03
2019-02-18T23:56:31.943Z,98922.28
2019-02-18T23:59:02.831Z,98925.92
